EFHK/HEL METAR and TAF weather

Enter ICAO airport designator
Station Type Date Time Source
EFHK METAR 2022/12/08 12:20 UTC NOAA

EFHK 081220Z 12003KT 070V150 1500 SN OVC003 M00/M01 Q0997 TEMPO 3000 -SN BKN005


Station Type Date Time Source
EFHK Decoded METAR 2022/12/08 12:20 UTC NOAA

Helsinki-Vantaa, Finland (EFHK) 60-19N 024-58E 56M
Dec 08, 2022 - 07:20 AM EST / 2022.12.08 1220 UTC
Wind: from the ESE (120 degrees) at 3 MPH (3 KT) (direction variable):0
Visibility: less than 1 mile:0
Sky conditions: overcast
Weather: snow
Temperature: 32 F (0 C)
Dew Point: 30 F (-1 C)
Relative Humidity: 92%
Pressure (altimeter): 29.44 in. Hg (0997 hPa)
ob: EFHK 081220Z 12003KT 070V150 1500 SN OVC003 M00/M01 Q0997 TEMPO 3000 -SN BKN005
cycle: 12

Station Type Date Time Source
EFHK TAF 2022/12/08 12:42 UTC NOAA

TAF TAF EFHK 081135Z 0812/0912 09005KT 5000 -SN BKN007
TEMPO 0812/0815 2000 BKN004 PROB40 0812/0814 0900 FZFG
BECMG 0815/0817 9000 FEW006 BKN015
TEMPO 0817/0901 4000 BKN009 PROB30 0903/0908 FEW020TCU

Example: see airport list